createdAt,value
2018-02-12T00:00:27.637Z,7.43
2018-02-12T00:02:55.977Z,7.10
2018-02-12T00:05:24.304Z,7.63
2018-02-12T00:07:52.635Z,7.40
2018-02-12T00:10:20.980Z,7.60
2018-02-12T00:12:49.295Z,6.43
2018-02-12T00:17:52.254Z,5.60
2018-02-12T00:20:20.574Z,5.10
2018-02-12T00:22:48.891Z,6.63
2018-02-12T00:25:17.234Z,5.87
2018-02-12T00:27:45.576Z,5.30
2018-02-12T00:30:13.880Z,5.33
2018-02-12T00:32:42.568Z,6.27
2018-02-12T00:35:10.861Z,5.53
2018-02-12T00:37:39.187Z,5.33
2018-02-12T00:40:07.791Z,4.30
2018-02-12T00:42:36.116Z,4.70
2018-02-12T00:45:04.475Z,4.93
2018-02-12T00:47:32.835Z,4.47
2018-02-12T00:50:01.147Z,5.13
2018-02-12T00:52:29.466Z,5.70
2018-02-12T00:54:57.803Z,5.00
2018-02-12T00:57:26.110Z,5.10
2018-02-12T00:59:54.454Z,5.20
2018-02-12T01:02:22.955Z,5.53
2018-02-12T01:04:51.260Z,5.50
2018-02-12T01:07:19.559Z,5.03
2018-02-12T01:09:47.887Z,4.57
2018-02-12T01:12:16.207Z,6.07
2018-02-12T01:14:44.527Z,5.60
2018-02-12T01:17:12.838Z,5.13
2018-02-12T01:19:41.184Z,4.60
2018-02-12T01:22:09.507Z,4.20
2018-02-12T01:24:37.812Z,5.17
2018-02-12T01:27:06.153Z,5.47
2018-02-12T01:29:34.530Z,5.60
2018-02-12T01:32:02.843Z,4.80
2018-02-12T01:34:31.472Z,5.70
2018-02-12T01:36:59.782Z,5.30
2018-02-12T01:39:28.118Z,5.70
2018-02-12T01:41:56.427Z,5.50
2018-02-12T01:44:24.745Z,4.83
2018-02-12T01:46:53.082Z,6.10
2018-02-12T01:49:21.408Z,5.90
2018-02-12T01:51:49.731Z,7.77
2018-02-12T01:54:18.063Z,5.87
2018-02-12T01:56:46.391Z,5.47
2018-02-12T01:59:14.695Z,6.10
2018-02-12T02:01:43.028Z,6.10
2018-02-12T02:04:11.380Z,6.97
2018-02-12T02:06:39.706Z,7.20
2018-02-12T02:09:08.051Z,5.13
2018-02-12T02:11:36.383Z,6.00
2018-02-12T02:14:04.721Z,6.50
2018-02-12T02:16:33.080Z,5.90
2018-02-12T02:19:01.396Z,6.40
2018-02-12T02:21:29.692Z,5.33
2018-02-12T02:23:58.020Z,5.83
2018-02-12T02:26:26.329Z,6.40
2018-02-12T02:28:54.668Z,6.37
2018-02-12T02:31:23.000Z,6.47
2018-02-12T02:33:51.327Z,6.40
2018-02-12T02:36:19.638Z,5.43
2018-02-12T02:38:47.993Z,6.43
2018-02-12T02:41:16.317Z,5.57
2018-02-12T02:43:44.684Z,5.90
2018-02-12T02:46:13.047Z,7.17
2018-02-12T02:48:41.715Z,6.23
2018-02-12T02:51:10.071Z,5.80
2018-02-12T02:53:38.409Z,5.73
2018-02-12T02:56:06.744Z,4.37
2018-02-12T02:58:35.077Z,4.30
2018-02-12T03:01:03.386Z,4.43
2018-02-12T03:03:31.750Z,5.07
2018-02-12T03:06:00.075Z,5.50
2018-02-12T03:08:28.428Z,4.40
2018-02-12T03:10:56.785Z,5.33
2018-02-12T03:13:25.109Z,4.30
2018-02-12T03:15:53.426Z,3.73
2018-02-12T03:18:21.754Z,4.00
2018-02-12T03:20:50.101Z,5.17
2018-02-12T03:23:18.407Z,4.80
2018-02-12T03:25:46.719Z,4.40
2018-02-12T03:28:15.021Z,3.87
2018-02-12T03:30:43.356Z,4.20
2018-02-12T03:33:11.656Z,3.97
2018-02-12T03:35:39.994Z,3.90
2018-02-12T03:38:08.299Z,3.07
2018-02-12T03:40:36.628Z,3.87
2018-02-12T03:43:04.946Z,3.03
2018-02-12T03:45:33.265Z,3.60
2018-02-12T03:48:01.574Z,4.13
2018-02-12T03:50:30.847Z,3.83
2018-02-12T03:52:59.165Z,2.90
2018-02-12T03:55:27.463Z,3.20
2018-02-12T03:57:55.778Z,3.00
2018-02-12T04:00:24.121Z,3.47
2018-02-12T04:02:52.451Z,3.20
2018-02-12T04:05:20.776Z,2.53
2018-02-12T04:07:49.084Z,2.80
2018-02-12T04:10:17.409Z,3.63
2018-02-12T04:12:45.747Z,2.73
2018-02-12T04:15:14.079Z,2.53
2018-02-12T04:17:42.397Z,3.00
2018-02-12T04:20:10.727Z,2.60
2018-02-12T04:22:39.138Z,2.30
2018-02-12T04:25:07.428Z,2.83
2018-02-12T04:27:35.788Z,2.63
2018-02-12T04:30:04.178Z,2.87
2018-02-12T04:32:32.542Z,2.83
2018-02-12T04:35:00.874Z,2.40
2018-02-12T04:37:29.160Z,2.67
2018-02-12T04:39:57.495Z,2.27
2018-02-12T04:42:26.308Z,2.60
2018-02-12T04:44:54.815Z,2.67
2018-02-12T04:47:25.820Z,2.00
2018-02-12T04:49:54.127Z,2.07
2018-02-12T04:52:22.455Z,1.90
2018-02-12T04:54:50.751Z,2.20
2018-02-12T04:57:19.089Z,2.00
2018-02-12T04:59:47.415Z,2.87
2018-02-12T05:02:15.741Z,2.40
2018-02-12T05:04:44.044Z,1.80
2018-02-12T05:07:12.367Z,2.70
2018-02-12T05:09:40.679Z,2.10
2018-02-12T05:12:09.000Z,2.47
2018-02-12T05:14:37.348Z,2.60
2018-02-12T05:17:05.721Z,2.77
2018-02-12T05:19:34.047Z,2.50
2018-02-12T05:22:03.831Z,2.10
2018-02-12T05:24:32.156Z,2.33
2018-02-12T05:27:00.471Z,2.70
2018-02-12T05:29:28.837Z,2.80
2018-02-12T05:31:57.123Z,1.80
2018-02-12T05:34:25.507Z,2.43
2018-02-12T05:36:53.834Z,2.60
2018-02-12T05:39:22.181Z,2.67
2018-02-12T05:41:50.495Z,2.73
2018-02-12T05:44:18.824Z,3.30
2018-02-12T05:46:47.153Z,3.10
2018-02-12T05:49:15.480Z,4.13
2018-02-12T05:51:43.792Z,3.30
2018-02-12T05:54:12.120Z,4.40
2018-02-12T05:59:41.327Z,4.80
2018-02-12T06:02:09.640Z,3.80
2018-02-12T06:04:37.999Z,4.17
2018-02-12T06:09:57.376Z,3.00
2018-02-12T06:12:25.724Z,3.40
2018-02-12T06:14:54.079Z,3.30
2018-02-12T06:17:22.452Z,3.93
2018-02-12T06:19:50.793Z,5.40
2018-02-12T06:22:19.955Z,4.97
2018-02-12T06:24:48.291Z,4.77
2018-02-12T06:27:16.634Z,5.70
2018-02-12T06:29:45.065Z,6.17
2018-02-12T06:32:13.391Z,5.60
2018-02-12T06:34:41.719Z,6.00
2018-02-12T06:37:10.190Z,6.70
2018-02-12T06:39:38.572Z,8.17
2018-02-12T06:42:06.899Z,7.33
2018-02-12T06:44:35.240Z,10.30
2018-02-12T06:47:03.567Z,9.83
2018-02-12T06:49:32.166Z,10.10
2018-02-12T06:55:30.597Z,8.20
2018-02-12T06:57:58.963Z,8.43
2018-02-12T07:00:30.158Z,5.20
2018-02-12T07:02:58.494Z,5.63
2018-02-12T07:05:26.821Z,6.50
2018-02-12T07:07:55.504Z,5.87
2018-02-12T07:10:23.963Z,6.20
2018-02-12T07:12:52.312Z,7.90
2018-02-12T07:21:03.637Z,8.10
2018-02-12T07:23:31.952Z,7.63
2018-02-12T07:26:00.360Z,7.13
2018-02-12T07:28:28.741Z,6.90
2018-02-12T07:30:57.295Z,8.93
2018-02-12T07:36:20.990Z,8.87
2018-02-12T07:38:49.329Z,10.00
2018-02-12T07:41:17.641Z,9.87
2018-02-12T07:46:19.340Z,9.70
2018-02-12T07:48:47.679Z,9.53
2018-02-12T07:51:16.004Z,8.87
2018-02-12T07:53:44.333Z,8.50
2018-02-12T07:56:12.728Z,7.67
2018-02-12T07:58:41.095Z,8.20
2018-02-12T08:01:09.453Z,8.07
2018-02-12T08:03:38.263Z,6.83
2018-02-12T08:06:06.791Z,7.27
2018-02-12T08:11:07.593Z,5.37
2018-02-12T08:13:35.942Z,5.40
2018-02-12T08:16:04.322Z,5.60
2018-02-12T08:18:32.749Z,5.30
2018-02-12T08:21:02.101Z,5.20
2018-02-12T08:23:30.498Z,4.43
2018-02-12T08:25:58.841Z,4.90
2018-02-12T08:28:29.585Z,5.27
2018-02-12T08:30:57.954Z,6.70
2018-02-12T08:33:26.493Z,5.67
2018-02-12T08:35:54.987Z,6.70
2018-02-12T08:38:23.557Z,6.70
2018-02-12T08:40:51.968Z,6.43
2018-02-12T08:43:20.313Z,6.67
2018-02-12T08:45:48.808Z,6.90
2018-02-12T08:50:57.837Z,5.80
2018-02-12T08:56:21.555Z,5.90
2018-02-12T08:58:49.900Z,5.57
2018-02-12T09:01:18.481Z,5.67
2018-02-12T09:03:46.807Z,4.90
2018-02-12T09:06:15.237Z,5.63
2018-02-12T09:08:43.623Z,6.87
2018-02-12T09:11:11.938Z,4.50
2018-02-12T09:13:44.214Z,5.10
2018-02-12T09:16:12.564Z,5.13
2018-02-12T09:18:41.114Z,3.60
2018-02-12T09:21:10.750Z,3.40
2018-02-12T09:23:40.152Z,4.00
2018-02-12T09:26:09.458Z,3.13
2018-02-12T09:28:37.872Z,3.03
2018-02-12T09:31:06.248Z,2.90
2018-02-12T09:33:35.651Z,2.57
2018-02-12T09:36:04.003Z,2.60
2018-02-12T09:38:32.408Z,3.33
2018-02-12T09:41:00.786Z,2.60
2018-02-12T09:43:29.101Z,2.80
2018-02-12T09:45:57.516Z,2.70
2018-02-12T09:53:32.664Z,3.83
2018-02-12T09:56:01.119Z,3.13
2018-02-12T10:01:01.983Z,2.10
2018-02-12T10:03:30.334Z,2.20
2018-02-12T10:05:58.734Z,2.80
2018-02-12T10:08:27.064Z,1.80
2018-02-12T10:10:55.402Z,2.10
2018-02-12T10:13:23.810Z,2.33
2018-02-12T10:15:52.142Z,2.87
2018-02-12T10:18:21.646Z,1.90
2018-02-12T10:20:51.441Z,2.40
2018-02-12T10:23:19.772Z,1.90
2018-02-12T10:25:48.217Z,2.57
2018-02-12T10:28:16.630Z,2.03
2018-02-12T10:30:44.980Z,2.30
2018-02-12T10:33:13.352Z,1.63
2018-02-12T10:35:41.731Z,2.40
2018-02-12T10:38:10.182Z,2.80
2018-02-12T10:40:41.091Z,2.23
2018-02-12T10:43:09.472Z,1.83
2018-02-12T10:45:37.808Z,2.20
2018-02-12T10:48:06.231Z,2.50
2018-02-12T10:50:34.660Z,2.50
2018-02-12T10:53:06.612Z,2.57
2018-02-12T10:58:07.446Z,2.97
2018-02-12T11:00:35.793Z,2.73
2018-02-12T11:03:04.187Z,2.80
2018-02-12T11:05:32.831Z,2.40
2018-02-12T11:08:01.483Z,2.10
2018-02-12T11:13:02.225Z,3.07
2018-02-12T11:18:03.207Z,3.13
2018-02-12T11:20:32.513Z,3.10
2018-02-12T11:25:48.097Z,2.30
2018-02-12T11:28:20.166Z,3.50
2018-02-12T11:30:50.967Z,2.80
2018-02-12T11:33:19.820Z,2.53
2018-02-12T11:35:48.202Z,2.97
2018-02-12T11:38:16.708Z,4.43
2018-02-12T11:40:45.043Z,2.33
2018-02-12T11:43:16.501Z,3.80
2018-02-12T11:45:44.868Z,2.77
2018-02-12T11:48:13.243Z,3.47
2018-02-12T11:53:14.812Z,3.43
2018-02-12T11:55:43.202Z,1.90
2018-02-12T11:58:11.635Z,2.17
2018-02-12T12:00:40.020Z,1.97
2018-02-12T12:03:08.449Z,1.60
2018-02-12T12:05:40.531Z,2.70
2018-02-12T12:08:08.979Z,2.97
2018-02-12T12:10:39.280Z,1.93
2018-02-12T12:13:07.752Z,2.33
2018-02-12T12:15:36.160Z,2.50
2018-02-12T12:18:04.730Z,1.73
2018-02-12T12:20:33.778Z,2.60
2018-02-12T12:23:05.817Z,2.30
2018-02-12T12:25:35.273Z,2.73
2018-02-12T12:28:03.644Z,2.37
2018-02-12T12:30:32.169Z,2.37
2018-02-12T12:33:00.536Z,2.07
2018-02-12T12:38:03.771Z,2.70
2018-02-12T12:40:32.110Z,1.97
2018-02-12T12:43:00.473Z,2.13
2018-02-12T12:48:07.146Z,1.90
2018-02-12T12:50:35.479Z,1.67
2018-02-12T12:53:04.029Z,2.10
2018-02-12T12:55:36.680Z,1.97
2018-02-12T12:58:05.298Z,1.73
2018-02-12T13:00:37.975Z,1.80
2018-02-12T13:03:06.321Z,1.70
2018-02-12T13:05:40.280Z,1.60
2018-02-12T13:08:08.928Z,1.57
2018-02-12T13:10:37.577Z,2.23
2018-02-12T13:13:05.925Z,1.60
2018-02-12T13:15:34.304Z,1.70
2018-02-12T13:18:02.974Z,2.10
2018-02-12T13:20:31.339Z,2.30
2018-02-12T13:22:59.899Z,2.17
2018-02-12T13:28:01.196Z,2.97
2018-02-12T13:30:30.409Z,1.90
2018-02-12T13:32:58.840Z,3.27
2018-02-12T13:35:27.185Z,2.10
2018-02-12T13:37:55.634Z,2.07
2018-02-12T13:40:23.933Z,2.20
2018-02-12T13:42:52.371Z,2.37
2018-02-12T13:47:53.239Z,2.53
2018-02-12T13:50:21.571Z,2.70
2018-02-12T13:52:49.992Z,2.47
2018-02-12T13:55:19.304Z,1.97
2018-02-12T13:57:47.677Z,2.20
2018-02-12T14:00:16.155Z,2.50
2018-02-12T14:02:44.676Z,2.63
2018-02-12T14:05:13.079Z,1.80
2018-02-12T14:10:14.050Z,2.90
2018-02-12T14:12:42.384Z,2.47
2018-02-12T14:17:47.753Z,2.60
2018-02-12T14:20:16.130Z,1.43
2018-02-12T14:25:37.224Z,1.60
2018-02-12T14:28:06.590Z,2.20
2018-02-12T14:30:34.923Z,1.97
2018-02-12T14:33:06.771Z,2.57
2018-02-12T14:35:35.153Z,2.20
2018-02-12T14:38:03.515Z,1.87
2018-02-12T14:40:32.133Z,2.67
2018-02-12T14:43:01.149Z,2.30
2018-02-12T14:45:29.580Z,1.67
2018-02-12T14:47:58.664Z,2.40
2018-02-12T14:55:34.186Z,2.50
2018-02-12T14:58:06.958Z,3.00
2018-02-12T15:00:35.407Z,2.20
2018-02-12T15:03:03.781Z,2.70
2018-02-12T15:05:32.164Z,2.77
2018-02-12T15:08:00.512Z,1.80
2018-02-12T15:10:28.849Z,2.50
2018-02-12T15:12:58.218Z,2.70
2018-02-12T15:15:26.629Z,2.63
2018-02-12T15:17:54.971Z,2.73
2018-02-12T15:20:23.557Z,2.83
2018-02-12T15:22:51.883Z,3.00
2018-02-12T15:25:20.637Z,2.70
2018-02-12T15:27:49.025Z,2.53
2018-02-12T15:30:17.381Z,2.00
2018-02-12T15:32:46.214Z,2.70
2018-02-12T15:35:14.862Z,2.50
2018-02-12T15:37:43.457Z,2.50
2018-02-12T15:40:11.826Z,2.93
2018-02-12T15:42:40.180Z,2.50
2018-02-12T15:45:08.568Z,2.30
2018-02-12T15:50:09.666Z,2.80
2018-02-12T15:52:38.038Z,2.37
2018-02-12T15:55:06.458Z,2.20
2018-02-12T15:57:34.815Z,3.30
2018-02-12T16:00:03.494Z,3.13
2018-02-12T16:02:31.922Z,3.27
2018-02-12T16:05:00.251Z,2.87
2018-02-12T16:07:28.591Z,2.53
2018-02-12T16:09:56.922Z,3.07
2018-02-12T16:12:29.333Z,2.80
2018-02-12T16:14:57.697Z,3.73
2018-02-12T16:17:26.097Z,3.13
2018-02-12T16:19:54.835Z,3.50
2018-02-12T16:22:23.815Z,3.03
2018-02-12T16:24:52.265Z,7.80
2018-02-12T16:27:20.619Z,10.60
2018-02-12T16:29:48.995Z,4.50
2018-02-12T16:32:17.379Z,7.10
2018-02-12T16:34:45.710Z,3.63
2018-02-12T16:37:14.105Z,7.63
2018-02-12T16:42:17.126Z,3.30
2018-02-12T16:44:45.431Z,3.67
2018-02-12T16:47:13.777Z,6.80
2018-02-12T16:49:42.973Z,3.50
2018-02-12T16:52:12.102Z,4.50
2018-02-12T16:54:40.448Z,4.40
2018-02-12T16:57:08.801Z,4.60
2018-02-12T16:59:37.193Z,7.40
2018-02-12T17:02:05.585Z,3.00
2018-02-12T17:04:33.951Z,3.70
2018-02-12T17:07:02.470Z,3.40
2018-02-12T17:09:30.900Z,4.03
2018-02-12T17:11:59.914Z,3.70
2018-02-12T17:14:32.530Z,3.10
2018-02-12T17:17:00.892Z,2.80
2018-02-12T17:19:29.278Z,3.10
2018-02-12T17:21:57.658Z,2.97
2018-02-12T17:24:26.108Z,2.73
2018-02-12T17:26:54.522Z,2.57
2018-02-12T17:29:22.925Z,3.20
2018-02-12T17:31:51.278Z,2.70
2018-02-12T17:34:19.620Z,3.30
2018-02-12T17:36:47.958Z,2.60
2018-02-12T17:39:16.670Z,3.10
2018-02-12T17:41:45.025Z,2.80
2018-02-12T17:44:13.540Z,2.80
2018-02-12T17:46:42.431Z,3.57
2018-02-12T17:49:10.790Z,2.67
2018-02-12T17:51:39.196Z,2.70
2018-02-12T17:54:07.537Z,2.83
2018-02-12T17:56:35.862Z,2.60
2018-02-12T17:59:04.245Z,2.80
2018-02-12T18:01:32.652Z,3.20
2018-02-12T18:04:01.913Z,2.40
2018-02-12T18:06:30.286Z,3.30
2018-02-12T18:08:59.435Z,3.67
2018-02-12T18:11:27.763Z,3.47
2018-02-12T18:13:56.112Z,3.23
2018-02-12T18:16:24.473Z,3.00
2018-02-12T18:18:52.887Z,2.47
2018-02-12T18:21:21.284Z,2.93
2018-02-12T18:23:49.604Z,2.37
2018-02-12T18:26:17.936Z,2.90
2018-02-12T18:28:46.318Z,3.60
2018-02-12T18:31:14.820Z,3.33
2018-02-12T18:33:43.197Z,4.17
2018-02-12T18:36:11.582Z,4.40
2018-02-12T18:38:40.037Z,3.27
2018-02-12T18:41:08.344Z,3.13
2018-02-12T18:43:36.721Z,3.80
2018-02-12T18:46:05.052Z,3.63
2018-02-12T18:48:33.518Z,4.93
2018-02-12T18:51:01.822Z,4.93
2018-02-12T18:53:30.157Z,4.87
2018-02-12T18:55:58.473Z,3.03
2018-02-12T18:58:26.907Z,3.50
2018-02-12T19:00:55.233Z,4.00
2018-02-12T19:03:23.560Z,3.07
2018-02-12T19:05:52.159Z,3.50
2018-02-12T19:08:20.506Z,3.67
2018-02-12T19:10:48.876Z,4.40
2018-02-12T19:13:17.228Z,4.03
2018-02-12T19:15:46.308Z,5.17
2018-02-12T19:18:15.624Z,4.93
2018-02-12T19:20:44.026Z,3.73
2018-02-12T19:23:12.693Z,5.10
2018-02-12T19:25:41.051Z,4.43
2018-02-12T19:28:09.745Z,5.40
2018-02-12T19:30:38.183Z,3.60
2018-02-12T19:33:06.533Z,3.30
2018-02-12T19:35:34.884Z,4.03
2018-02-12T19:38:03.288Z,3.17
2018-02-12T19:40:31.808Z,4.50
2018-02-12T19:43:01.150Z,3.47
2018-02-12T19:45:29.568Z,4.10
2018-02-12T19:47:58.095Z,4.80
2018-02-12T19:50:26.596Z,4.27
2018-02-12T19:52:55.260Z,4.57
2018-02-12T19:55:23.593Z,3.03
2018-02-12T19:57:51.943Z,3.70
2018-02-12T20:00:20.356Z,3.63
2018-02-12T20:02:48.834Z,5.03
2018-02-12T20:05:17.201Z,4.70
2018-02-12T20:07:47.576Z,5.10
2018-02-12T20:10:15.916Z,4.70
2018-02-12T20:12:44.337Z,4.43
2018-02-12T20:15:12.687Z,4.70
2018-02-12T20:17:40.997Z,4.40
2018-02-12T20:20:09.331Z,4.60
2018-02-12T20:22:37.662Z,5.43
2018-02-12T20:25:06.077Z,6.03
2018-02-12T20:27:34.555Z,5.10
2018-02-12T20:30:02.890Z,5.50
2018-02-12T20:32:31.232Z,5.37
2018-02-12T20:34:59.578Z,6.20
2018-02-12T20:37:27.892Z,6.80
2018-02-12T20:39:56.285Z,5.10
2018-02-12T20:42:24.636Z,5.60
2018-02-12T20:44:52.957Z,5.97
2018-02-12T20:47:21.298Z,6.13
2018-02-12T20:49:49.679Z,6.50
2018-02-12T20:52:18.022Z,6.37
2018-02-12T20:54:46.361Z,6.80
2018-02-12T20:57:14.765Z,5.10
2018-02-12T20:59:43.092Z,6.30
2018-02-12T21:02:11.606Z,6.00
2018-02-12T21:04:39.931Z,5.80
2018-02-12T21:07:08.315Z,6.70
2018-02-12T21:09:36.657Z,6.43
2018-02-12T21:12:05.045Z,5.70
2018-02-12T21:14:33.529Z,5.77
2018-02-12T21:17:01.886Z,7.37
2018-02-12T21:19:30.282Z,5.33
2018-02-12T21:21:58.704Z,6.37
2018-02-12T21:24:27.122Z,7.50
2018-02-12T21:26:55.471Z,6.50
2018-02-12T21:29:23.849Z,6.30
2018-02-12T21:31:52.159Z,6.40
2018-02-12T21:34:20.493Z,5.53
2018-02-12T21:36:48.817Z,6.10
2018-02-12T21:39:20.593Z,5.00
2018-02-12T21:41:48.915Z,6.13
2018-02-12T21:44:17.308Z,6.40
2018-02-12T21:46:45.628Z,4.87
2018-02-12T21:49:13.966Z,5.77
2018-02-12T21:51:42.363Z,3.90
2018-02-12T21:54:10.750Z,5.10
2018-02-12T21:56:39.117Z,5.17
2018-02-12T21:59:07.468Z,4.87
2018-02-12T22:01:35.823Z,5.80
2018-02-12T22:04:04.156Z,5.57
2018-02-12T22:06:32.511Z,5.40
2018-02-12T22:09:00.940Z,5.93
2018-02-12T22:11:29.272Z,5.83
2018-02-12T22:13:57.703Z,5.90
2018-02-12T22:16:26.026Z,4.80
2018-02-12T22:18:54.349Z,5.90
2018-02-12T22:21:22.683Z,6.03
2018-02-12T22:23:51.016Z,6.00
2018-02-12T22:26:19.327Z,6.47
2018-02-12T22:28:47.662Z,5.60
2018-02-12T22:31:15.984Z,6.20
2018-02-12T22:33:44.345Z,5.60
2018-02-12T22:36:12.665Z,5.73
2018-02-12T22:38:41.085Z,5.90
2018-02-12T22:41:09.403Z,7.70
2018-02-12T22:43:37.742Z,7.10
2018-02-12T22:46:06.075Z,8.40
2018-02-12T22:48:34.403Z,7.13
2018-02-12T22:51:02.769Z,8.57
2018-02-12T22:53:31.092Z,7.87
2018-02-12T22:55:59.419Z,7.53
2018-02-12T22:58:27.756Z,7.83
2018-02-12T23:00:56.116Z,7.00
2018-02-12T23:03:24.423Z,7.47
2018-02-12T23:05:52.771Z,8.37
2018-02-12T23:08:21.079Z,8.37
2018-02-12T23:10:49.630Z,9.70
2018-02-12T23:13:17.935Z,7.60
2018-02-12T23:15:46.287Z,8.50
2018-02-12T23:18:14.590Z,7.50
2018-02-12T23:20:42.945Z,8.10
2018-02-12T23:23:11.258Z,8.20
2018-02-12T23:25:39.610Z,7.67
2018-02-12T23:28:07.996Z,8.80
2018-02-12T23:30:36.328Z,8.07
2018-02-12T23:33:04.656Z,8.40
2018-02-12T23:35:32.971Z,7.47
2018-02-12T23:38:02.227Z,8.87
2018-02-12T23:40:30.567Z,7.63
2018-02-12T23:42:58.910Z,7.53
2018-02-12T23:45:27.250Z,9.13
2018-02-12T23:47:55.560Z,7.90
2018-02-12T23:50:23.919Z,8.17
2018-02-12T23:52:52.287Z,7.40
2018-02-12T23:55:20.591Z,7.17
2018-02-12T23:57:48.918Z,8.20
